Time;durP1;ratioP1;P1;durP2;ratioP2;P2;SDS_P1;SDS_P2;PMS_P1;PMS_P2;Temp;Humidity;BMP_temperature;BMP_pressure;BME280_temperature;BME280_humidity;BME280_pressure;Samples;Min_cycle;Max_cycle;Signal;HPM_P1;HPM_P2
2022/03/23 00:02:14;;;;;;;13.45;9.10;;;;;;;;;;5065145;28;20193;-65
2022/03/23 00:04:40;;;;;;;13.10;9.35;;;;;;;;;;5064994;28;20235;-65
2022/03/23 00:07:06;;;;;;;14.13;9.35;;;;;;;;;;5064697;28;20189;-65
2022/03/23 00:09:33;;;;;;;16.00;9.25;;;;;;;;;;5065320;28;20201;-65
2022/03/23 00:12:00;;;;;;;14.02;9.52;;;;;;;;;;5064680;28;20193;-65
2022/03/23 00:14:27;;;;;;;14.63;9.27;;;;;;;;;;5064878;28;20273;-65
2022/03/23 00:16:53;;;;;;;13.68;10.32;;;;;;;;;;5064634;28;20205;-65
2022/03/23 00:19:19;;;;;;;14.20;9.55;;;;;;;;;;5064624;28;20220;-65
2022/03/23 00:21:46;;;;;;;12.63;10.27;;;;;;;;;;5064575;28;20203;-65
2022/03/23 00:24:12;;;;;;;13.15;9.77;;;;;;;;;;5064427;28;20260;-65
2022/03/23 00:26:38;;;;;;;14.73;10.02;;;;;;;;;;5064484;28;20236;-65
2022/03/23 00:29:06;;;;;;;14.07;10.63;;;;;;;;;;5064644;28;20201;-65
2022/03/23 00:31:32;;;;;;;18.23;11.38;;;;;;;;;;5064520;28;20197;-65
2022/03/23 00:33:59;;;;;;;14.68;10.85;;;;;;;;;;5064364;28;20275;-65
2022/03/23 00:36:25;;;;;;;15.48;11.38;;;;;;;;;;5064047;28;20205;-65
2022/03/23 00:38:53;;;;;;;18.63;11.43;;;;;;;;;;5064241;28;20197;-65
2022/03/23 00:41:20;;;;;;;17.48;11.57;;;;;;;;;;5064130;28;20197;-65
2022/03/23 00:43:46;;;;;;;15.93;11.63;;;;;;;;;;5064299;28;20417;-65
2022/03/23 00:46:14;;;;;;;18.75;11.85;;;;;;;;;;5063945;28;20448;-65
2022/03/23 00:48:41;;;;;;;16.33;11.80;;;;;;;;;;5064166;28;20202;-65
2022/03/23 00:51:07;;;;;;;16.25;11.63;;;;;;;;;;5063983;28;20201;-65
2022/03/23 00:53:34;;;;;;;17.35;11.90;;;;;;;;;;5063822;28;20251;-65
2022/03/23 00:56:00;;;;;;;15.48;11.80;;;;;;;;;;5063302;28;20203;-65
2022/03/23 00:58:26;;;;;;;14.82;11.75;;;;;;;;;;5063978;28;20235;-66
2022/03/23 01:00:53;;;;;;;17.40;11.10;;;;;;;;;;5063925;28;20370;-66
2022/03/23 01:03:21;;;;;;;18.70;10.65;;;;;;;;;;5063822;28;20193;-65
2022/03/23 01:05:48;;;;;;;14.68;10.15;;;;;;;;;;5063641;28;20550;-65
2022/03/23 01:08:14;;;;;;;14.95;10.60;;;;;;;;;;5063344;28;20197;-65
2022/03/23 01:10:40;;;;;;;15.00;10.43;;;;;;;;;;5063944;28;20259;-65
2022/03/23 01:13:06;;;;;;;17.48;10.50;;;;;;;;;;5063522;28;20213;-65
2022/03/23 01:15:33;;;;;;;12.57;10.27;;;;;;;;;;5063750;28;20251;-65
2022/03/23 01:17:59;;;;;;;15.90;10.60;;;;;;;;;;5063262;28;20204;-65
2022/03/23 01:20:27;;;;;;;11.20;9.88;;;;;;;;;;5064028;28;20197;-65
2022/03/23 01:22:53;;;;;;;13.75;9.82;;;;;;;;;;5063395;28;20197;-65
2022/03/23 01:25:19;;;;;;;12.15;9.40;;;;;;;;;;5063351;28;20315;-65
2022/03/23 01:27:46;;;;;;;15.18;9.82;;;;;;;;;;5063529;28;20268;-65
2022/03/23 01:30:13;;;;;;;12.18;9.27;;;;;;;;;;5063273;28;20204;-65
2022/03/23 01:32:40;;;;;;;11.07;9.82;;;;;;;;;;5063339;28;20221;-65
2022/03/23 01:35:07;;;;;;;10.90;8.90;;;;;;;;;;5063172;28;20192;-65
2022/03/23 01:37:35;;;;;;;10.88;9.77;;;;;;;;;;5063202;28;20307;-65
2022/03/23 01:40:01;;;;;;;12.88;10.27;;;;;;;;;;5063337;28;20197;-65
2022/03/23 01:42:28;;;;;;;12.82;9.90;;;;;;;;;;5063222;28;20243;-65
2022/03/23 01:44:54;;;;;;;12.40;9.90;;;;;;;;;;5063112;28;20220;-65
2022/03/23 01:47:20;;;;;;;12.68;9.57;;;;;;;;;;5062823;28;20201;-65
2022/03/23 01:49:47;;;;;;;12.02;9.90;;;;;;;;;;5062778;28;20243;-65
2022/03/23 01:52:15;;;;;;;11.95;8.73;;;;;;;;;;5063101;28;20237;-65
2022/03/23 01:54:43;;;;;;;10.55;9.52;;;;;;;;;;5062887;28;20284;-65
2022/03/23 01:57:09;;;;;;;16.90;9.82;;;;;;;;;;5062668;28;20197;-65
2022/03/23 01:59:36;;;;;;;11.23;9.13;;;;;;;;;;5062677;28;20197;-65
2022/03/23 02:02:04;;;;;;;12.40;9.32;;;;;;;;;;5062733;28;20239;-65
2022/03/23 02:04:30;;;;;;;12.57;9.65;;;;;;;;;;5062644;28;20193;-65
2022/03/23 02:06:56;;;;;;;12.32;9.75;;;;;;;;;;5061478;28;20235;-65
2022/03/23 02:09:24;;;;;;;13.02;9.90;;;;;;;;;;5062783;28;20197;-65
2022/03/23 02:11:53;;;;;;;14.38;10.48;;;;;;;;;;5062669;28;20224;-65
2022/03/23 02:14:20;;;;;;;12.82;10.48;;;;;;;;;;5062465;28;20258;-65
2022/03/23 02:16:47;;;;;;;11.85;9.85;;;;;;;;;;5062173;28;20432;-65
2022/03/23 02:19:14;;;;;;;15.50;9.35;;;;;;;;;;5062693;28;20204;-65
2022/03/23 02:21:44;;;;;;;13.60;10.05;;;;;;;;;;5062597;28;20429;-65
2022/03/23 02:24:10;;;;;;;11.52;10.20;;;;;;;;;;5062525;28;20501;-65
2022/03/23 02:26:37;;;;;;;15.68;10.57;;;;;;;;;;5062092;28;20198;-65
2022/03/23 02:29:04;;;;;;;12.57;10.30;;;;;;;;;;5062271;28;20454;-65
2022/03/23 02:31:31;;;;;;;13.27;10.75;;;;;;;;;;5062110;28;20204;-65
2022/03/23 02:33:57;;;;;;;16.55;10.60;;;;;;;;;;5061678;28;20221;-65
2022/03/23 02:36:24;;;;;;;16.02;10.80;;;;;;;;;;5062069;28;20197;-65
2022/03/23 02:38:51;;;;;;;15.48;10.48;;;;;;;;;;5062051;28;20208;-65
2022/03/23 02:41:18;;;;;;;14.43;10.05;;;;;;;;;;5062176;28;20200;-65
2022/03/23 02:43:44;;;;;;;15.27;10.18;;;;;;;;;;5062164;28;20193;-65
2022/03/23 02:46:12;;;;;;;14.60;10.80;;;;;;;;;;5061976;28;20395;-65
2022/03/23 02:48:38;;;;;;;13.13;10.38;;;;;;;;;;5062168;28;20250;-65
2022/03/23 02:51:04;;;;;;;16.65;10.43;;;;;;;;;;5062069;28;20352;-65
2022/03/23 03:02:00;;;;;;;13.23;10.82;;;;;;;;;;5061984;28;20531;-66
2022/03/23 03:04:27;;;;;;;18.15;10.57;;;;;;;;;;5062174;28;20193;-65
2022/03/23 03:06:53;;;;;;;14.15;10.80;;;;;;;;;;5061758;28;20375;-65
2022/03/23 03:09:20;;;;;;;13.48;10.77;;;;;;;;;;5062135;28;20431;-66
2022/03/23 03:11:48;;;;;;;16.73;11.55;;;;;;;;;;5061925;28;20197;-66
2022/03/23 03:14:15;;;;;;;12.85;10.55;;;;;;;;;;5061871;28;20217;-65
2022/03/23 03:16:41;;;;;;;14.60;10.70;;;;;;;;;;5061757;28;20204;-65
2022/03/23 03:19:09;;;;;;;14.75;10.10;;;;;;;;;;5064744;28;20243;-65
2022/03/23 03:21:35;;;;;;;13.02;10.05;;;;;;;;;;5065908;28;20197;-65
2022/03/23 03:24:01;;;;;;;14.68;10.07;;;;;;;;;;5065795;28;20208;-65
2022/03/23 03:26:28;;;;;;;17.13;11.20;;;;;;;;;;5065525;28;20465;-66
2022/03/23 03:28:56;;;;;;;15.73;10.75;;;;;;;;;;5065577;28;20235;-66
2022/03/23 03:31:22;;;;;;;15.45;11.38;;;;;;;;;;5065404;28;20200;-66
2022/03/23 03:33:48;;;;;;;13.10;10.32;;;;;;;;;;5065382;28;20217;-66
2022/03/23 03:36:15;;;;;;;19.13;12.18;;;;;;;;;;5065310;28;20204;-66
2022/03/23 03:38:41;;;;;;;15.27;11.60;;;;;;;;;;5065357;28;20230;-65
2022/03/23 03:41:08;;;;;;;15.13;11.27;;;;;;;;;;5065480;28;20268;-65
2022/03/23 03:43:35;;;;;;;13.35;11.23;;;;;;;;;;5065216;28;20418;-65
2022/03/23 03:46:06;;;;;;;16.52;11.73;;;;;;;;;;5065329;28;20205;-65
2022/03/23 03:48:32;;;;;;;17.95;11.65;;;;;;;;;;5065306;28;20197;-65
2022/03/23 03:50:59;;;;;;;15.50;11.85;;;;;;;;;;5065301;28;20243;-65
2022/03/23 03:53:25;;;;;;;13.15;11.15;;;;;;;;;;5064862;28;20219;-65
2022/03/23 03:55:52;;;;;;;14.27;11.40;;;;;;;;;;5065214;28;20243;-65
2022/03/23 03:58:19;;;;;;;16.27;10.55;;;;;;;;;;5064844;28;20204;-65
2022/03/23 04:00:45;;;;;;;14.10;10.23;;;;;;;;;;5065302;28;20197;-65
2022/03/23 04:03:14;;;;;;;13.60;11.20;;;;;;;;;;5064929;28;20201;-65
2022/03/23 04:05:40;;;;;;;12.55;10.02;;;;;;;;;;5065073;28;20255;-65
2022/03/23 04:08:07;;;;;;;16.55;10.75;;;;;;;;;;5064697;28;20200;-65
2022/03/23 04:10:33;;;;;;;15.52;10.85;;;;;;;;;;5064689;28;20243;-65
2022/03/23 04:12:59;;;;;;;13.43;10.45;;;;;;;;;;5064941;28;20202;-65
2022/03/23 04:15:26;;;;;;;16.98;11.07;;;;;;;;;;5064637;28;20213;-65
2022/03/23 04:17:54;;;;;;;17.00;11.82;;;;;;;;;;5064690;28;20204;-65
2022/03/23 04:20:22;;;;;;;16.33;12.38;;;;;;;;;;5064620;28;20208;-65
2022/03/23 04:22:49;;;;;;;16.73;12.85;;;;;;;;;;5064564;28;20204;-65
2022/03/23 04:25:16;;;;;;;15.90;12.52;;;;;;;;;;5064269;28;20544;-66
2022/03/23 04:27:45;;;;;;;16.65;11.15;;;;;;;;;;5064313;28;20205;-65
2022/03/23 04:30:13;;;;;;;15.45;11.88;;;;;;;;;;5063642;28;20228;-65
2022/03/23 04:32:39;;;;;;;17.45;12.93;;;;;;;;;;5064367;28;20236;-65
2022/03/23 04:35:06;;;;;;;15.48;12.02;;;;;;;;;;5064241;28;20220;-65
2022/03/23 04:37:34;;;;;;;18.00;12.48;;;;;;;;;;5064119;28;20201;-65
2022/03/23 04:40:00;;;;;;;16.90;11.60;;;;;;;;;;5064433;28;20250;-65
2022/03/23 04:42:26;;;;;;;21.00;12.50;;;;;;;;;;5064620;28;20229;-65
2022/03/23 04:44:53;;;;;;;15.10;11.70;;;;;;;;;;5064324;28;20197;-65
2022/03/23 04:47:19;;;;;;;15.98;12.45;;;;;;;;;;5063830;28;20204;-65
2022/03/23 04:49:45;;;;;;;15.52;11.35;;;;;;;;;;5064121;28;20193;-65
2022/03/23 04:52:13;;;;;;;16.20;11.68;;;;;;;;;;5063865;28;20209;-65
2022/03/23 04:54:41;;;;;;;17.67;11.65;;;;;;;;;;5064151;28;20217;-65
2022/03/23 04:57:07;;;;;;;17.00;12.15;;;;;;;;;;5063862;28;20197;-66
2022/03/23 04:59:34;;;;;;;16.50;11.85;;;;;;;;;;5064103;28;20396;-65
2022/03/23 05:02:00;;;;;;;16.02;10.65;;;;;;;;;;5063935;28;20263;-65
2022/03/23 05:04:26;;;;;;;15.20;10.93;;;;;;;;;;5063808;28;20193;-65
2022/03/23 05:06:52;;;;;;;14.32;11.10;;;;;;;;;;5063135;28;20231;-65
2022/03/23 05:09:19;;;;;;;15.88;12.23;;;;;;;;;;5063944;28;20212;-65
2022/03/23 05:11:46;;;;;;;16.85;12.18;;;;;;;;;;5063582;28;20197;-66
2022/03/23 05:14:13;;;;;;;16.77;12.10;;;;;;;;;;5063462;28;20579;-66
2022/03/23 05:16:39;;;;;;;18.83;11.95;;;;;;;;;;5063252;28;20197;-66
2022/03/23 05:19:05;;;;;;;15.32;11.45;;;;;;;;;;5063525;28;20243;-66
2022/03/23 05:21:31;;;;;;;19.10;11.77;;;;;;;;;;5063441;28;20197;-66
2022/03/23 05:23:58;;;;;;;16.85;11.77;;;;;;;;;;5063292;28;20508;-66
2022/03/23 05:26:24;;;;;;;17.95;12.50;;;;;;;;;;5063202;28;20243;-66
2022/03/23 05:28:51;;;;;;;14.68;11.15;;;;;;;;;;5063355;28;20235;-66
2022/03/23 05:31:18;;;;;;;15.18;11.65;;;;;;;;;;5063344;28;20204;-66
2022/03/23 05:33:44;;;;;;;15.93;12.02;;;;;;;;;;5063222;28;20446;-66
2022/03/23 05:36:10;;;;;;;17.58;12.63;;;;;;;;;;5062756;28;20200;-66
2022/03/23 05:38:37;;;;;;;22.67;12.75;;;;;;;;;;5063277;28;20209;-66
2022/03/23 05:41:03;;;;;;;16.95;12.40;;;;;;;;;;5063142;28;20197;-66
2022/03/23 05:43:29;;;;;;;21.73;12.20;;;;;;;;;;5063233;28;20227;-66
2022/03/23 05:45:57;;;;;;;18.33;11.70;;;;;;;;;;5063012;28;20200;-66
2022/03/23 05:48:23;;;;;;;17.58;12.25;;;;;;;;;;5062912;28;20243;-67
2022/03/23 05:50:50;;;;;;;27.75;16.33;;;;;;;;;;5063112;28;20197;-67
2022/03/23 05:53:16;;;;;;;17.58;12.68;;;;;;;;;;5062962;28;20198;-66
2022/03/23 05:55:42;;;;;;;14.75;11.52;;;;;;;;;;5062998;28;20217;-66
2022/03/23 05:58:09;;;;;;;20.58;13.82;;;;;;;;;;5062453;28;20547;-66
2022/03/23 06:00:35;;;;;;;18.58;12.63;;;;;;;;;;5062940;28;20423;-66
2022/03/23 06:03:03;;;;;;;22.33;14.10;;;;;;;;;;5062664;28;20201;-68
2022/03/23 06:05:29;;;;;;;16.88;12.02;;;;;;;;;;5062942;28;20389;-67
2022/03/23 06:07:56;;;;;;;19.00;12.90;;;;;;;;;;5062910;28;20430;-67
2022/03/23 06:10:22;;;;;;;18.40;12.43;;;;;;;;;;5062896;28;20216;-67
2022/03/23 06:12:48;;;;;;;29.25;15.38;;;;;;;;;;5062626;28;20197;-68
2022/03/23 06:15:14;;;;;;;24.30;12.95;;;;;;;;;;5062534;28;20240;-68
2022/03/23 06:17:41;;;;;;;20.58;13.05;;;;;;;;;;5062155;28;20204;-67
2022/03/23 06:20:09;;;;;;;19.40;12.85;;;;;;;;;;5062629;28;20201;-67
2022/03/23 06:22:36;;;;;;;26.42;13.57;;;;;;;;;;5062662;28;20376;-67
2022/03/23 06:25:02;;;;;;;19.85;12.05;;;;;;;;;;5062479;28;20201;-67
2022/03/23 06:27:28;;;;;;;24.02;12.48;;;;;;;;;;5062084;28;20200;-68
2022/03/23 06:29:55;;;;;;;25.70;14.07;;;;;;;;;;5062366;28;20303;-67
2022/03/23 06:32:21;;;;;;;28.88;12.75;;;;;;;;;;5062378;28;20408;-67
2022/03/23 06:34:48;;;;;;;26.67;13.57;;;;;;;;;;5062116;28;20221;-67
2022/03/23 06:37:16;;;;;;;23.55;14.15;;;;;;;;;;5062163;28;20197;-67
2022/03/23 06:39:42;;;;;;;26.77;14.45;;;;;;;;;;5062247;28;20197;-67
2022/03/23 06:42:08;;;;;;;25.17;14.70;;;;;;;;;;5062320;28;20235;-67
2022/03/23 06:44:34;;;;;;;26.58;13.48;;;;;;;;;;5062220;28;20197;-67
2022/03/23 06:47:01;;;;;;;21.58;13.05;;;;;;;;;;5062186;28;20201;-67
2022/03/23 06:49:27;;;;;;;19.00;13.05;;;;;;;;;;5062291;28;20234;-67
2022/03/23 06:51:53;;;;;;;17.63;13.07;;;;;;;;;;5062303;28;20205;-67
2022/03/23 06:54:21;;;;;;;18.33;12.95;;;;;;;;;;5061675;28;20221;-67
2022/03/23 06:56:51;;;;;;;18.95;12.40;;;;;;;;;;5061801;28;20243;-67
2022/03/23 06:59:18;;;;;;;26.20;13.95;;;;;;;;;;5062141;28;20201;-67
2022/03/23 07:01:44;;;;;;;26.73;14.85;;;;;;;;;;5062277;28;20254;-67
2022/03/23 07:04:10;;;;;;;23.27;14.65;;;;;;;;;;5062215;28;20204;-67
2022/03/23 07:06:36;;;;;;;24.42;14.38;;;;;;;;;;5061648;28;20255;-67
2022/03/23 07:11:48;;;;;;;22.42;14.07;;;;;;;;;;5061676;28;20554;-67
2022/03/23 07:14:14;;;;;;;20.00;13.70;;;;;;;;;;5061727;28;20205;-67
2022/03/23 07:16:41;;;;;;;19.23;12.60;;;;;;;;;;5061760;28;20205;-67
2022/03/23 07:19:07;;;;;;;24.95;13.88;;;;;;;;;;5061721;28;20206;-67
2022/03/23 07:21:34;;;;;;;22.02;13.50;;;;;;;;;;5061745;28;20235;-67
2022/03/23 07:24:01;;;;;;;27.13;13.52;;;;;;;;;;5061719;28;20205;-68
2022/03/23 07:26:27;;;;;;;18.85;12.68;;;;;;;;;;5061375;28;20197;-67
2022/03/23 07:28:56;;;;;;;21.60;12.15;;;;;;;;;;5061924;28;20197;-67
2022/03/23 07:31:22;;;;;;;26.40;13.10;;;;;;;;;;5061603;28;20197;-68
2022/03/23 07:33:50;;;;;;;19.73;12.88;;;;;;;;;;5061229;28;20512;-68
2022/03/23 07:36:16;;;;;;;23.70;13.70;;;;;;;;;;5061052;28;20228;-67
2022/03/23 07:38:43;;;;;;;23.17;12.32;;;;;;;;;;5061646;28;20527;-68
2022/03/23 07:41:09;;;;;;;23.52;13.38;;;;;;;;;;5054518;28;20275;-58
2022/03/23 07:43:35;;;;;;;20.58;13.45;;;;;;;;;;5056614;28;20201;-58
2022/03/23 07:46:03;;;;;;;21.98;13.52;;;;;;;;;;5064214;28;20201;-59
2022/03/23 07:48:29;;;;;;;20.33;12.77;;;;;;;;;;5055945;28;20213;-60
2022/03/23 07:50:55;;;;;;;25.70;13.73;;;;;;;;;;5055893;28;20216;-58
2022/03/23 07:53:21;;;;;;;22.20;13.90;;;;;;;;;;5055910;28;20223;-56
2022/03/23 07:55:48;;;;;;;19.77;14.20;;;;;;;;;;5055876;28;20228;-57
2022/03/23 07:58:14;;;;;;;26.25;13.82;;;;;;;;;;5055799;28;20247;-57
2022/03/23 08:00:43;;;;;;;23.85;14.15;;;;;;;;;;5055790;28;20231;-55
2022/03/23 08:03:10;;;;;;;22.20;14.23;;;;;;;;;;5056046;28;20205;-57
2022/03/23 08:05:37;;;;;;;23.80;14.75;;;;;;;;;;5057671;28;20228;-58
2022/03/23 08:08:04;;;;;;;25.77;13.63;;;;;;;;;;5059122;28;20204;-57
2022/03/23 08:10:30;;;;;;;37.38;14.85;;;;;;;;;;5059253;28;20213;-56
2022/03/23 08:12:56;;;;;;;39.47;15.07;;;;;;;;;;5069622;28;20477;-56
2022/03/23 08:15:24;;;;;;;21.55;14.90;;;;;;;;;;5079509;28;20228;-54
2022/03/23 08:17:50;;;;;;;30.83;14.55;;;;;;;;;;5079087;28;20240;-53
2022/03/23 08:20:36;;;;;;;24.15;15.15;;;;;;;;;;5079707;28;20258;-58
2022/03/23 08:23:03;;;;;;;26.25;14.82;;;;;;;;;;5079608;28;20284;-58
2022/03/23 08:25:29;;;;;;;25.38;14.85;;;;;;;;;;5079303;28;20246;-57
2022/03/23 08:27:56;;;;;;;27.20;14.82;;;;;;;;;;5079545;28;20208;-57
2022/03/23 08:30:24;;;;;;;23.05;15.63;;;;;;;;;;5079274;28;20204;-59
2022/03/23 08:32:50;;;;;;;24.88;14.98;;;;;;;;;;5065438;28;20244;-57
2022/03/23 08:35:18;;;;;;;27.20;16.55;;;;;;;;;;5059041;28;20568;-58
2022/03/23 08:37:44;;;;;;;23.83;15.63;;;;;;;;;;5058251;28;20579;-57
2022/03/23 08:40:11;;;;;;;24.38;15.32;;;;;;;;;;5058856;28;20209;-58
2022/03/23 08:42:37;;;;;;;30.75;15.85;;;;;;;;;;5058811;28;20431;-58
2022/03/23 08:45:04;;;;;;;25.50;16.77;;;;;;;;;;5059099;28;20248;-58
2022/03/23 08:47:30;;;;;;;23.30;16.63;;;;;;;;;;5058470;28;20209;-59
2022/03/23 08:49:56;;;;;;;26.65;16.42;;;;;;;;;;5058853;28;20254;-58
2022/03/23 08:52:24;;;;;;;29.27;17.30;;;;;;;;;;5058582;28;20213;-55
2022/03/23 08:54:50;;;;;;;22.10;16.83;;;;;;;;;;5058901;28;20544;-57
2022/03/23 08:57:16;;;;;;;24.92;16.25;;;;;;;;;;5058643;28;20213;-59
2022/03/23 08:59:43;;;;;;;27.90;17.02;;;;;;;;;;5058476;28;20213;-58
2022/03/23 09:02:09;;;;;;;24.98;17.17;;;;;;;;;;5058024;28;20213;-60
2022/03/23 09:04:35;;;;;;;23.15;16.85;;;;;;;;;;5058296;28;20250;-57
2022/03/23 09:07:01;;;;;;;28.67;17.67;;;;;;;;;;5058213;28;20213;-59
2022/03/23 09:09:29;;;;;;;25.52;17.95;;;;;;;;;;5058536;28;20247;-58
2022/03/23 09:11:55;;;;;;;27.88;18.17;;;;;;;;;;5058022;28;20209;-59
2022/03/23 09:14:22;;;;;;;29.80;17.15;;;;;;;;;;5058334;28;20247;-56
2022/03/23 09:16:48;;;;;;;26.88;18.13;;;;;;;;;;5057374;28;20488;-58
2022/03/23 09:19:19;;;;;;;27.85;18.08;;;;;;;;;;5058318;28;20224;-58
2022/03/23 09:21:46;;;;;;;27.15;18.33;;;;;;;;;;5058069;28;20225;-55
2022/03/23 09:24:12;;;;;;;28.88;18.17;;;;;;;;;;5058145;28;20217;-58
2022/03/23 09:26:40;;;;;;;23.88;17.02;;;;;;;;;;5058581;28;20213;-57
2022/03/23 09:29:07;;;;;;;26.73;17.05;;;;;;;;;;5058202;28;20232;-56
2022/03/23 09:31:34;;;;;;;32.55;18.17;;;;;;;;;;5057491;28;20216;-59
2022/03/23 09:34:02;;;;;;;28.30;18.23;;;;;;;;;;5058156;28;20213;-55
2022/03/23 09:39:12;;;;;;;23.52;18.50;;;;;;;;;;5058551;28;20212;-57
2022/03/23 09:41:41;;;;;;;31.00;19.25;;;;;;;;;;5058371;28;20205;-57
2022/03/23 09:44:07;;;;;;;26.50;19.75;;;;;;;;;;5057773;28;20216;-57
2022/03/23 09:46:34;;;;;;;30.98;18.70;;;;;;;;;;5057507;28;20205;-58
2022/03/23 09:49:00;;;;;;;29.30;17.75;;;;;;;;;;5058017;28;20412;-57
2022/03/23 09:51:27;;;;;;;24.35;18.15;;;;;;;;;;5057207;28;20536;-58
2022/03/23 09:53:53;;;;;;;24.65;17.45;;;;;;;;;;5057648;28;20233;-56
2022/03/23 09:56:20;;;;;;;31.67;17.50;;;;;;;;;;5057043;28;20225;-56
2022/03/23 09:58:47;;;;;;;22.92;18.05;;;;;;;;;;5057787;28;20231;-56
2022/03/23 10:01:42;;;;;;;27.70;18.23;;;;;;;;;;5057534;28;20339;-56
2022/03/23 10:04:28;;;;;;;29.33;18.15;;;;;;;;;;5057609;28;20239;-57
2022/03/23 10:06:58;;;;;;;47.10;18.58;;;;;;;;;;5057074;28;20312;-57
2022/03/23 10:09:42;;;;;;;32.00;19.33;;;;;;;;;;5057451;28;20209;-57
2022/03/23 10:12:52;;;;;;;48.65;19.17;;;;;;;;;;5057076;28;20665;-57
2022/03/23 10:15:37;;;;;;;23.23;16.23;;;;;;;;;;5056854;28;20224;-56
2022/03/23 10:18:18;;;;;;;22.50;16.55;;;;;;;;;;5057309;28;20209;-57
2022/03/23 10:20:45;;;;;;;26.10;14.90;;;;;;;;;;5057471;28;20221;-57
2022/03/23 10:23:11;;;;;;;27.45;15.40;;;;;;;;;;5057370;28;20208;-57
2022/03/23 10:25:38;;;;;;;18.17;15.05;;;;;;;;;;5057489;28;20255;-58
2022/03/23 10:28:12;;;;;;;21.55;15.23;;;;;;;;;;5057136;28;20216;-59
2022/03/23 10:30:39;;;;;;;25.35;15.38;;;;;;;;;;5057977;28;20209;-60
2022/03/23 10:33:16;;;;;;;23.77;16.60;;;;;;;;;;5056985;28;20209;-59
2022/03/23 10:35:43;;;;;;;27.92;15.60;;;;;;;;;;5056861;28;20229;-56
2022/03/23 10:38:10;;;;;;;23.10;15.85;;;;;;;;;;5055620;28;20209;-59
2022/03/23 10:40:36;;;;;;;19.90;15.48;;;;;;;;;;5055667;28;20204;-59
2022/03/23 10:43:03;;;;;;;30.42;18.40;;;;;;;;;;5056332;28;20201;-59
2022/03/23 10:45:31;;;;;;;24.80;15.63;;;;;;;;;;5056728;28;20205;-59
2022/03/23 10:48:07;;;;;;;22.02;14.93;;;;;;;;;;5056120;28;20488;-56
2022/03/23 10:50:33;;;;;;;22.80;15.40;;;;;;;;;;5055886;28;20209;-59
2022/03/23 10:53:02;;;;;;;21.65;15.15;;;;;;;;;;5056146;28;20216;-58
2022/03/23 10:55:29;;;;;;;19.23;14.48;;;;;;;;;;5056317;28;20224;-59
2022/03/23 10:58:19;;;;;;;17.70;14.13;;;;;;;;;;5056129;28;20212;-58
2022/03/23 11:00:46;;;;;;;23.00;13.60;;;;;;;;;;5036168;28;20248;-58
2022/03/23 11:03:12;;;;;;;18.02;13.25;;;;;;;;;;5056434;28;20660;-58
2022/03/23 11:05:39;;;;;;;16.58;12.98;;;;;;;;;;5055957;28;20244;-57
2022/03/23 11:08:08;;;;;;;34.05;14.75;;;;;;;;;;5053191;28;20496;-59
2022/03/23 11:16:06;;;;;;;18.88;14.65;;;;;;;;;;5056068;28;20238;-59
2022/03/23 11:18:33;;;;;;;15.50;13.10;;;;;;;;;;5056522;28;20209;-58
2022/03/23 11:21:00;;;;;;;18.45;13.95;;;;;;;;;;5056329;28;20209;-59
2022/03/23 11:23:28;;;;;;;20.40;13.77;;;;;;;;;;5057116;28;20224;-59
2022/03/23 11:25:55;;;;;;;17.58;13.32;;;;;;;;;;5055870;28;20212;-57
2022/03/23 11:28:22;;;;;;;20.42;14.45;;;;;;;;;;5056734;28;20512;-60
2022/03/23 11:30:49;;;;;;;17.58;13.80;;;;;;;;;;5056289;28;20258;-58
2022/03/23 11:33:16;;;;;;;19.33;12.52;;;;;;;;;;5056453;28;20395;-59
2022/03/23 11:35:48;;;;;;;18.58;14.30;;;;;;;;;;5056320;28;20229;-57
2022/03/23 11:38:14;;;;;;;21.25;13.18;;;;;;;;;;5056098;28;20456;-57
2022/03/23 11:40:43;;;;;;;17.15;12.85;;;;;;;;;;5059106;28;20548;-60
2022/03/23 11:43:10;;;;;;;17.38;12.93;;;;;;;;;;5060552;28;20209;-59
2022/03/23 11:45:36;;;;;;;18.40;13.48;;;;;;;;;;5060214;28;20244;-58
2022/03/23 11:48:09;;;;;;;17.40;13.07;;;;;;;;;;5059892;28;20251;-57
2022/03/23 11:50:51;;;;;;;21.27;14.45;;;;;;;;;;5059925;28;20582;-58
2022/03/23 11:53:20;;;;;;;604.67;74.97;;;;;;;;;;5059840;28;20232;-56
2022/03/23 11:55:51;;;;;;;18.88;14.23;;;;;;;;;;5060222;28;20233;-57
2022/03/23 11:58:21;;;;;;;18.30;13.20;;;;;;;;;;5059963;28;20236;-60
2022/03/23 12:00:50;;;;;;;21.13;14.00;;;;;;;;;;5059459;28;20247;-59
2022/03/23 12:03:31;;;;;;;22.33;14.43;;;;;;;;;;5059246;28;20362;-59
2022/03/23 12:06:05;;;;;;;19.73;13.48;;;;;;;;;;5059148;28;20227;-59
2022/03/23 12:08:46;;;;;;;28.02;14.00;;;;;;;;;;5059685;28;20236;-60
2022/03/23 12:11:28;;;;;;;19.27;13.20;;;;;;;;;;5059336;28;20407;-56
2022/03/23 12:13:58;;;;;;;17.38;13.02;;;;;;;;;;5056625;28;20288;-58
2022/03/23 12:16:40;;;;;;;19.52;13.40;;;;;;;;;;5059131;28;20237;-59
2022/03/23 12:19:06;;;;;;;17.05;12.95;;;;;;;;;;5059034;28;21336;-58
2022/03/23 12:21:41;;;;;;;41.75;14.55;;;;;;;;;;5058674;28;20213;-58
2022/03/23 12:24:10;;;;;;;26.65;13.77;;;;;;;;;;5058718;28;20220;-58
2022/03/23 12:26:38;;;;;;;16.88;12.02;;;;;;;;;;5059146;28;20251;-59
2022/03/23 12:29:09;;;;;;;27.08;13.77;;;;;;;;;;5059181;28;20270;-57
2022/03/23 12:31:36;;;;;;;22.45;12.35;;;;;;;;;;5059324;28;20209;-63
2022/03/23 12:34:04;;;;;;;44.17;15.00;;;;;;;;;;5058060;28;20209;-62
2022/03/23 12:36:56;;;;;;;37.45;12.45;;;;;;;;;;5058707;28;20225;-62
2022/03/23 12:39:25;;;;;;;20.10;11.50;;;;;;;;;;5058318;28;20276;-62
2022/03/23 12:41:52;;;;;;;58.78;12.77;;;;;;;;;;5056304;28;20449;-62
2022/03/23 12:44:27;;;;;;;21.73;11.23;;;;;;;;;;5058818;28;20532;-62
2022/03/23 12:46:54;;;;;;;12.88;10.25;;;;;;;;;;5058673;28;20205;-61
2022/03/23 12:57:50;;;;;;;12.02;10.48;;;;;;;;;;5057985;28;20274;-62
2022/03/23 13:00:28;;;;;;;13.75;10.00;;;;;;;;;;5057122;28;20520;-62
2022/03/23 13:03:24;;;;;;;11.45;10.23;;;;;;;;;;5058634;28;20484;-62
2022/03/23 13:06:07;;;;;;;453.25;50.55;;;;;;;;;;4976976;28;20224;-62
2022/03/23 13:08:38;;;;;;;12.75;10.18;;;;;;;;;;5047465;28;20524;-62
2022/03/23 13:11:05;;;;;;;15.73;9.38;;;;;;;;;;5057957;28;20532;-62
2022/03/23 13:13:33;;;;;;;33.10;11.65;;;;;;;;;;5058207;28;20212;-62
2022/03/23 13:16:00;;;;;;;10.60;9.50;;;;;;;;;;5058071;28;20218;-62
2022/03/23 13:18:27;;;;;;;38.10;11.13;;;;;;;;;;5057902;28;20232;-63
2022/03/23 13:20:56;;;;;;;62.60;15.18;;;;;;;;;;5058111;28;20216;-63
2022/03/23 13:23:22;;;;;;;11.32;9.13;;;;;;;;;;5058763;28;20299;-62
2022/03/23 13:26:02;;;;;;;35.17;10.23;;;;;;;;;;5057901;28;20217;-61
2022/03/23 13:28:28;;;;;;;17.08;9.68;;;;;;;;;;5063715;28;20222;-61
2022/03/23 13:30:58;;;;;;;17.33;10.30;;;;;;;;;;5077502;28;20215;-62
2022/03/23 13:33:26;;;;;;;20.90;11.02;;;;;;;;;;5077997;28;20447;-61
2022/03/23 13:35:54;;;;;;;10.80;9.70;;;;;;;;;;5073079;28;21074;-62
2022/03/23 13:38:20;;;;;;;45.13;11.82;;;;;;;;;;5057679;28;20669;-62
2022/03/23 13:43:32;;;;;;;27.15;10.60;;;;;;;;;;5057816;28;20243;-62
2022/03/23 13:46:00;;;;;;;17.65;10.38;;;;;;;;;;5057440;28;20209;-62
2022/03/23 13:48:30;;;;;;;15.82;9.50;;;;;;;;;;5057504;28;20470;-62
2022/03/23 13:50:56;;;;;;;28.58;10.18;;;;;;;;;;5057210;28;20505;-63
2022/03/23 13:53:23;;;;;;;18.15;9.60;;;;;;;;;;5057744;28;20205;-62
2022/03/23 13:55:50;;;;;;;20.30;9.45;;;;;;;;;;5057249;28;20208;-63
2022/03/23 13:58:17;;;;;;;130.10;16.55;;;;;;;;;;5057238;28;20539;-62
2022/03/23 14:00:44;;;;;;;51.38;11.75;;;;;;;;;;5057127;28;20205;-63
2022/03/23 14:03:11;;;;;;;159.93;21.30;;;;;;;;;;5057297;28;20209;-63
2022/03/23 14:05:39;;;;;;;62.55;14.88;;;;;;;;;;5057605;28;20239;-62
2022/03/23 14:08:06;;;;;;;11.80;9.85;;;;;;;;;;5057223;28;20209;-62
2022/03/23 14:10:34;;;;;;;27.65;10.10;;;;;;;;;;5056983;28;20215;-62
2022/03/23 14:13:03;;;;;;;15.75;9.80;;;;;;;;;;5057698;28;20598;-63
2022/03/23 14:15:31;;;;;;;13.63;11.02;;;;;;;;;;5057083;28;20236;-62
2022/03/23 14:17:58;;;;;;;286.65;32.50;;;;;;;;;;5056915;28;20236;-62
2022/03/23 14:20:25;;;;;;;22.42;11.52;;;;;;;;;;5056800;28;20208;-62
2022/03/23 14:22:53;;;;;;;13.57;9.95;;;;;;;;;;5056738;28;20213;-62
2022/03/23 14:25:20;;;;;;;21.77;9.57;;;;;;;;;;5056672;28;20469;-63
2022/03/23 14:27:49;;;;;;;38.00;11.82;;;;;;;;;;5056635;28;20504;-62
2022/03/23 14:30:16;;;;;;;13.18;11.30;;;;;;;;;;5056650;28;20215;-63
2022/03/23 14:32:43;;;;;;;32.80;11.95;;;;;;;;;;5056648;28;20464;-62
2022/03/23 14:35:11;;;;;;;53.08;15.80;;;;;;;;;;5057322;28;20439;-62
2022/03/23 14:37:38;;;;;;;19.15;10.73;;;;;;;;;;5056206;28;20292;-63
2022/03/23 14:40:22;;;;;;;18.95;10.35;;;;;;;;;;5056822;28;20527;-63
2022/03/23 14:42:49;;;;;;;29.38;11.70;;;;;;;;;;5056703;28;20208;-62
2022/03/23 14:45:27;;;;;;;22.00;11.70;;;;;;;;;;5056846;28;20209;-63
2022/03/23 14:47:54;;;;;;;527.85;60.28;;;;;;;;;;5056415;28;20204;-61
2022/03/23 14:50:20;;;;;;;203.48;31.58;;;;;;;;;;5056788;28;20212;-61
2022/03/23 14:52:46;;;;;;;85.60;17.35;;;;;;;;;;5056569;28;20213;-61
2022/03/23 14:55:12;;;;;;;21.88;10.10;;;;;;;;;;5056777;28;20417;-62